Taunton, Minnesota
Current Conditions -  °F | °C
As of 2:54 AM on Wednesday 22 Oct 2014 (Local Time) from KCNB Reporting Station
Broken Clouds Broken Clouds  
Wind Chill: 55°   Ceiling: 6500
Heat Index: 55°   Visibility: 10mi
Dew Point: 43°   Wind: 14mph
Humidity: 65%   Direction: 160°SSE
Pressure: 30.01"   Gusts: 18mph
Location:  44.59°N, 96.07°W
Report Text: KCNB 220754Z AUTO 16012G16KT 10SM BKN065 13/06 A3001 RMK AO2 T01270063
Loading
Personal Weather Stations






























Interactive Weather Map
Tropical Storm Tracking
New forecast layout! Learn more

10-Day Weather Forecast

Advertisements
Track Severe Weather on mobile